Current Weather

San Ramon

San Ramon, Bolivia (SLRA)

Report from: Tuesday, November 8, 2022 6:00 PM UTC
Current time: Sunday, December 4, 2022 11:17 AM UTC

Nearby weather
Weather history
Weather forecast

Temperature36.0°C (96.8°F)
Heat index37.5°C (99.4°F)
Dew point18.0°C (64.4°F)
Winds 6 kts (3.1 m/s, 6.9 mph) North-Northwest (340°)
Visibility5 mi. (8 km)
Clouds Scattered clouds 1,700 ft. (518 m)
Altimeter29.88 in.Hg (1012 mB)
Relative humidity35 %
Density altitude2,702 ft. (823 m)
Flight conditions Marginal Visual Meteorological Conditions
Raw dataSLRA 081800Z 34006KT 8000 SCT017 36/18 Q1012
An error has occurred. This application may no longer respond until reloaded. Reload 🗙